createdAt,value
2023-04-15T00:00:03.380Z,938.85
2023-04-15T00:01:03.375Z,938.90
2023-04-15T00:02:03.452Z,938.88
2023-04-15T00:03:03.533Z,938.85
2023-04-15T00:04:03.478Z,938.85
2023-04-15T00:05:03.336Z,938.83
2023-04-15T00:06:03.330Z,938.83
2023-04-15T00:07:03.327Z,938.81
2023-04-15T00:08:03.316Z,938.82
2023-04-15T00:09:03.500Z,938.80
2023-04-15T00:10:03.267Z,938.84
2023-04-15T00:11:03.351Z,938.82
2023-04-15T00:12:03.282Z,938.83
2023-04-15T00:13:03.235Z,938.77
2023-04-15T00:14:03.229Z,938.82
2023-04-15T00:15:03.232Z,938.75
2023-04-15T00:16:03.204Z,938.74
2023-04-15T00:17:03.207Z,938.73
2023-04-15T00:18:03.199Z,938.74
2023-04-15T00:19:03.339Z,938.73
2023-04-15T00:20:03.191Z,938.72
2023-04-15T00:21:03.166Z,938.71
2023-04-15T00:22:03.126Z,938.67
2023-04-15T00:23:03.144Z,938.71
2023-04-15T00:24:03.112Z,938.70
2023-04-15T00:25:03.118Z,938.61
2023-04-15T00:26:03.083Z,938.64
2023-04-15T00:27:03.094Z,938.68
2023-04-15T00:28:03.091Z,938.63
2023-04-15T00:29:03.074Z,938.63
2023-04-15T00:30:03.038Z,938.64
2023-04-15T00:31:03.091Z,938.62
2023-04-15T00:32:03.018Z,938.64
2023-04-15T00:33:03.054Z,938.57
2023-04-15T00:34:02.994Z,938.59
2023-04-15T00:35:02.991Z,938.57
2023-04-15T00:36:03.025Z,938.55
2023-04-15T00:37:02.971Z,938.55
2023-04-15T00:38:02.964Z,938.58
2023-04-15T00:39:02.963Z,938.53
2023-04-15T00:40:02.946Z,938.56
2023-04-15T00:41:02.943Z,938.50
2023-04-15T00:42:02.907Z,938.58
2023-04-15T00:43:02.918Z,938.53
2023-04-15T00:44:02.907Z,938.50
2023-04-15T00:45:02.882Z,938.50
2023-04-15T00:46:02.917Z,938.51
2023-04-15T00:47:02.850Z,938.50
2023-04-15T00:48:02.889Z,938.50
2023-04-15T00:49:02.855Z,938.54
2023-04-15T00:50:02.815Z,938.55
2023-04-15T00:51:02.821Z,938.46
2023-04-15T00:52:02.815Z,938.51
2023-04-15T00:53:08.926Z,938.50
2023-04-15T00:54:02.773Z,938.49
2023-04-15T00:55:02.765Z,938.48
2023-04-15T00:56:02.770Z,938.48
2023-04-15T00:57:02.740Z,938.44
2023-04-15T00:58:02.748Z,938.38
2023-04-15T00:59:02.748Z,938.41
2023-04-15T01:00:02.722Z,938.38
2023-04-15T01:01:02.772Z,938.39
2023-04-15T01:02:02.782Z,938.41
2023-04-15T01:03:02.834Z,938.39
2023-04-15T01:04:02.793Z,938.39
2023-04-15T01:05:02.662Z,938.39
2023-04-15T01:06:04.063Z,938.34
2023-04-15T01:07:02.644Z,938.35
2023-04-15T01:08:02.631Z,938.34
2023-04-15T01:09:02.980Z,938.33
2023-04-15T01:10:02.607Z,938.33
2023-04-15T01:11:02.580Z,938.30
2023-04-15T01:12:02.575Z,938.29
2023-04-15T01:13:02.596Z,938.24
2023-04-15T01:14:02.605Z,938.31
2023-04-15T01:15:02.541Z,938.29
2023-04-15T01:16:02.556Z,938.27
2023-04-15T01:17:02.523Z,938.16
2023-04-15T01:18:02.563Z,938.13
2023-04-15T01:19:02.908Z,938.12
2023-04-15T01:20:02.505Z,938.16
2023-04-15T01:21:02.496Z,938.17
2023-04-15T01:22:02.455Z,938.16
2023-04-15T01:23:02.446Z,938.17
2023-04-15T01:24:02.488Z,938.11
2023-04-15T01:25:02.453Z,938.10
2023-04-15T01:26:02.456Z,938.12
2023-04-15T01:27:10.084Z,938.06
2023-04-15T01:28:10.182Z,938.04
2023-04-15T01:29:11.128Z,938.05
2023-04-15T01:30:10.037Z,938.01
2023-04-15T01:31:10.081Z,938.02
2023-04-15T01:32:10.046Z,937.99
2023-04-15T01:33:10.084Z,938.07
2023-04-15T01:34:02.350Z,938.00
2023-04-15T01:35:02.313Z,937.98
2023-04-15T01:36:02.416Z,938.02
2023-04-15T01:37:02.291Z,938.04
2023-04-15T01:38:02.307Z,937.98
2023-04-15T01:39:02.454Z,938.02
2023-04-15T01:40:02.266Z,938.00
2023-04-15T01:41:02.250Z,937.89
2023-04-15T01:42:02.232Z,937.96
2023-04-15T01:43:02.255Z,937.85
2023-04-15T01:44:02.277Z,937.92
2023-04-15T01:45:02.213Z,937.94
2023-04-15T01:46:02.188Z,937.93
2023-04-15T01:47:02.314Z,937.92
2023-04-15T01:48:02.248Z,937.91
2023-04-15T01:49:02.443Z,937.95
2023-04-15T01:50:02.144Z,937.87
2023-04-15T01:51:02.152Z,937.91
2023-04-15T01:52:02.126Z,937.88
2023-04-15T01:53:02.129Z,937.84
2023-04-15T01:54:02.138Z,937.83
2023-04-15T01:55:02.121Z,937.83
2023-04-15T01:56:02.174Z,937.80
2023-04-15T01:57:02.068Z,937.80
2023-04-15T01:58:02.054Z,937.81
2023-04-15T01:59:02.425Z,937.83
2023-04-15T02:00:02.067Z,937.79
2023-04-15T02:01:02.055Z,937.85
2023-04-15T02:02:02.109Z,937.83
2023-04-15T02:03:02.021Z,937.78
2023-04-15T02:04:02.059Z,937.76
2023-04-15T02:05:02.008Z,937.80
2023-04-15T02:06:01.985Z,937.77
2023-04-15T02:07:01.992Z,937.77
2023-04-15T02:08:01.946Z,937.77
2023-04-15T02:09:02.231Z,937.78
2023-04-15T02:10:01.915Z,937.76
2023-04-15T02:11:01.907Z,937.78
2023-04-15T02:12:01.933Z,937.84
2023-04-15T02:13:01.919Z,937.84
2023-04-15T02:14:02.010Z,937.77
2023-04-15T02:15:01.866Z,937.80
2023-04-15T02:16:02.046Z,937.80
2023-04-15T02:17:01.844Z,937.76
2023-04-15T02:18:01.840Z,937.80
2023-04-15T02:19:02.071Z,937.80
2023-04-15T02:20:01.903Z,937.75
2023-04-15T02:21:01.808Z,937.76
2023-04-15T02:22:01.788Z,937.76
2023-04-15T02:23:01.779Z,937.73
2023-04-15T02:24:01.763Z,937.76
2023-04-15T02:25:01.788Z,937.78
2023-04-15T02:26:01.736Z,937.75
2023-04-15T02:27:01.757Z,937.78
2023-04-15T02:28:01.742Z,937.76
2023-04-15T02:29:01.823Z,937.74
2023-04-15T02:30:01.732Z,937.76
2023-04-15T02:31:01.711Z,937.73
2023-04-15T02:32:01.743Z,937.77
2023-04-15T02:33:01.761Z,937.77
2023-04-15T02:34:01.661Z,937.76
2023-04-15T02:35:01.665Z,937.75
2023-04-15T02:36:01.643Z,937.77
2023-04-15T02:37:01.715Z,937.79
2023-04-15T02:38:01.611Z,937.80
2023-04-15T02:39:01.687Z,937.85
2023-04-15T02:40:01.681Z,937.92
2023-04-15T02:41:01.577Z,937.91
2023-04-15T02:42:01.672Z,937.90
2023-04-15T02:43:01.564Z,937.89
2023-04-15T02:44:01.570Z,937.93
2023-04-15T02:45:01.549Z,937.90
2023-04-15T02:46:01.553Z,937.93
2023-04-15T02:47:01.624Z,937.91
2023-04-15T02:48:01.496Z,937.89
2023-04-15T02:49:01.541Z,937.93
2023-04-15T02:50:01.472Z,937.89
2023-04-15T02:51:01.488Z,937.86
2023-04-15T02:52:01.538Z,937.87
2023-04-15T02:53:01.765Z,937.84
2023-04-15T02:54:01.421Z,937.88
2023-04-15T02:55:01.439Z,937.88
2023-04-15T02:56:01.421Z,937.86
2023-04-15T02:57:01.408Z,937.88
2023-04-15T02:58:01.383Z,937.83
2023-04-15T02:59:01.595Z,937.82
2023-04-15T03:00:01.382Z,937.81
2023-04-15T03:01:01.386Z,937.84
2023-04-15T03:02:01.378Z,937.84
2023-04-15T03:03:01.393Z,937.84
2023-04-15T03:04:01.374Z,937.87
2023-04-15T03:05:01.322Z,937.89
2023-04-15T03:06:01.303Z,937.81
2023-04-15T03:07:01.309Z,937.83
2023-04-15T03:08:01.474Z,937.83
2023-04-15T03:09:01.551Z,937.82
2023-04-15T03:10:01.239Z,937.82
2023-04-15T03:11:01.229Z,937.77
2023-04-15T03:12:01.239Z,937.74
2023-04-15T03:13:01.227Z,937.75
2023-04-15T03:14:01.202Z,937.72
2023-04-15T03:15:01.189Z,937.70
2023-04-15T03:16:01.225Z,937.67
2023-04-15T03:17:01.183Z,937.63
2023-04-15T03:18:01.195Z,937.67
2023-04-15T03:19:01.491Z,937.68
2023-04-15T03:20:01.161Z,937.66
2023-04-15T03:21:01.116Z,937.75
2023-04-15T03:22:01.108Z,937.70
2023-04-15T03:23:01.129Z,937.71
2023-04-15T03:24:01.094Z,937.71
2023-04-15T03:25:01.084Z,937.71
2023-04-15T03:26:01.089Z,937.79
2023-04-15T03:27:01.059Z,937.76
2023-04-15T03:28:01.043Z,937.78
2023-04-15T03:29:01.399Z,937.81
2023-04-15T03:30:01.027Z,937.76
2023-04-15T03:31:01.133Z,937.77
2023-04-15T03:32:01.044Z,937.70
2023-04-15T03:33:01.007Z,937.72
2023-04-15T03:34:01.034Z,937.70
2023-04-15T03:35:00.961Z,937.73
2023-04-15T03:36:00.967Z,937.74
2023-04-15T03:37:00.958Z,937.68
2023-04-15T03:38:00.928Z,937.64
2023-04-15T03:39:01.159Z,937.66
2023-04-15T03:40:00.922Z,937.62
2023-04-15T03:41:00.894Z,937.59
2023-04-15T03:42:00.910Z,937.62
2023-04-15T03:43:00.884Z,937.54
2023-04-15T03:44:00.877Z,937.55
2023-04-15T03:45:00.846Z,937.55
2023-04-15T03:46:02.016Z,937.53
2023-04-15T03:47:00.826Z,937.59
2023-04-15T03:48:15.620Z,937.60
2023-04-15T03:49:02.082Z,937.63
2023-04-15T03:50:00.792Z,937.61
2023-04-15T03:51:00.869Z,937.63
2023-04-15T03:52:00.770Z,937.66
2023-04-15T03:53:00.760Z,937.70
2023-04-15T03:54:00.743Z,937.69
2023-04-15T03:55:01.697Z,937.69
2023-04-15T03:56:00.743Z,937.65
2023-04-15T03:57:00.716Z,937.60
2023-04-15T03:58:00.704Z,937.61
2023-04-15T03:59:00.904Z,937.65
2023-04-15T04:00:00.680Z,937.62
2023-04-15T04:01:00.697Z,937.66
2023-04-15T04:02:00.724Z,937.60
2023-04-15T04:03:00.843Z,937.58
2023-04-15T04:04:00.722Z,937.58
2023-04-15T04:05:00.621Z,937.62
2023-04-15T04:06:00.637Z,937.62
2023-04-15T04:07:00.603Z,937.58
2023-04-15T04:08:00.582Z,937.64
2023-04-15T04:09:00.886Z,937.64
2023-04-15T04:10:00.585Z,937.72
2023-04-15T04:11:00.586Z,937.70
2023-04-15T04:12:00.550Z,937.72
2023-04-15T04:13:00.548Z,937.74
2023-04-15T04:14:00.519Z,937.80
2023-04-15T04:15:00.515Z,937.77
2023-04-15T04:16:00.543Z,937.78
2023-04-15T04:17:00.499Z,937.78
2023-04-15T04:18:00.510Z,937.77
2023-04-15T04:19:00.738Z,937.83
2023-04-15T04:20:00.485Z,937.88
2023-04-15T04:21:00.443Z,937.85
2023-04-15T04:22:00.449Z,937.83
2023-04-15T04:23:00.414Z,937.83
2023-04-15T04:24:00.407Z,937.83
2023-04-15T04:25:00.421Z,937.83
2023-04-15T04:26:00.383Z,937.81
2023-04-15T04:27:00.393Z,937.82
2023-04-15T04:28:00.358Z,937.82
2023-04-15T04:29:00.674Z,937.81
2023-04-15T04:30:00.350Z,937.79
2023-04-15T04:31:00.360Z,937.81
2023-04-15T04:32:00.384Z,937.79
2023-04-15T04:33:00.418Z,937.81
2023-04-15T04:34:00.315Z,937.79
2023-04-15T04:35:00.289Z,937.78
2023-04-15T04:36:00.297Z,937.79
2023-04-15T04:37:00.276Z,937.82
2023-04-15T04:38:00.265Z,937.83
2023-04-15T04:39:00.522Z,937.81
2023-04-15T04:40:00.225Z,937.83
2023-04-15T04:41:00.216Z,937.84
2023-04-15T04:42:00.208Z,937.83
2023-04-15T04:43:00.221Z,937.83
2023-04-15T04:44:00.186Z,937.84
2023-04-15T04:45:00.193Z,937.81
2023-04-15T04:46:00.208Z,937.81
2023-04-15T04:47:00.158Z,937.80
2023-04-15T04:48:00.231Z,937.78
2023-04-15T04:49:00.256Z,937.78
2023-04-15T04:50:00.195Z,937.81
2023-04-15T04:51:00.095Z,937.76
2023-04-15T04:52:00.158Z,937.83
2023-04-15T04:53:00.086Z,937.90
2023-04-15T04:54:01.314Z,937.85
2023-04-15T04:55:00.082Z,937.83
2023-04-15T04:56:00.042Z,937.77
2023-04-15T04:57:00.060Z,937.80
2023-04-15T04:58:00.039Z,937.77
2023-04-15T04:59:00.372Z,937.75
2023-04-15T04:59:59.996Z,937.75
2023-04-15T05:01:00.041Z,937.76
2023-04-15T05:02:00.032Z,937.73
2023-04-15T05:03:00.127Z,937.73
2023-04-15T05:04:00.029Z,937.73
2023-04-15T05:04:59.954Z,937.74
2023-04-15T05:05:59.941Z,937.68
2023-04-15T05:06:59.944Z,937.68
2023-04-15T05:07:59.948Z,937.69
2023-04-15T05:09:00.200Z,937.67
2023-04-15T05:09:59.908Z,937.74
2023-04-15T05:10:59.878Z,937.72
2023-04-15T05:11:59.893Z,937.74
2023-04-15T05:12:59.862Z,937.77
2023-04-15T05:13:59.902Z,937.78
2023-04-15T05:14:59.839Z,937.80
2023-04-15T05:15:59.955Z,937.87
2023-04-15T05:16:59.812Z,937.86
2023-04-15T05:17:59.810Z,937.89
2023-04-15T05:18:59.973Z,937.86
2023-04-15T05:19:59.792Z,937.83
2023-04-15T05:20:59.761Z,937.88
2023-04-15T05:21:59.753Z,937.80
2023-04-15T05:22:59.738Z,937.82
2023-04-15T05:23:59.747Z,937.84
2023-04-15T05:24:59.764Z,937.85
2023-04-15T05:25:59.714Z,937.84
2023-04-15T05:26:59.720Z,937.93
2023-04-15T05:27:59.683Z,937.93
2023-04-15T05:28:59.829Z,937.91
2023-04-15T05:29:59.680Z,937.91
2023-04-15T05:30:59.762Z,937.93
2023-04-15T05:32:02.874Z,937.98
2023-04-15T05:32:59.663Z,937.96
2023-04-15T05:33:59.622Z,937.96
2023-04-15T05:34:59.659Z,937.96
2023-04-15T05:35:59.596Z,937.94
2023-04-15T05:37:00.550Z,937.99
2023-04-15T05:37:59.569Z,938.00
2023-04-15T05:38:59.837Z,938.06
2023-04-15T05:39:59.584Z,938.06
2023-04-15T05:40:59.541Z,938.07
2023-04-15T05:41:59.539Z,938.11
2023-04-15T05:42:59.514Z,938.12
2023-04-15T05:43:59.520Z,938.10
2023-04-15T05:44:59.514Z,938.08
2023-04-15T05:45:59.554Z,938.07
2023-04-15T05:46:59.481Z,937.99
2023-04-15T05:47:59.505Z,937.98
2023-04-15T05:48:59.670Z,937.96
2023-04-15T05:49:59.493Z,938.00
2023-04-15T05:50:59.437Z,938.06
2023-04-15T05:51:59.417Z,937.98
2023-04-15T05:52:59.401Z,938.02
2023-04-15T05:53:59.410Z,938.08
2023-04-15T05:54:59.410Z,938.08
2023-04-15T05:55:59.395Z,938.03
2023-04-15T05:56:59.371Z,938.04
2023-04-15T05:57:59.348Z,938.01
2023-04-15T05:58:59.736Z,937.94
2023-04-15T05:59:59.361Z,937.91
2023-04-15T06:00:59.372Z,937.96
2023-04-15T06:01:59.349Z,937.93
2023-04-15T06:02:59.476Z,937.98
2023-04-15T06:03:59.371Z,937.92
2023-04-15T06:04:59.442Z,938.00
2023-04-15T06:05:59.271Z,937.99
2023-04-15T06:06:59.261Z,938.00
2023-04-15T06:07:59.245Z,938.01
2023-04-15T06:08:59.234Z,938.01
2023-04-15T06:09:59.212Z,938.02
2023-04-15T06:10:59.220Z,938.05
2023-04-15T06:11:59.226Z,938.05
2023-04-15T06:12:59.169Z,938.02
2023-04-15T06:13:59.165Z,938.01
2023-04-15T06:15:00.099Z,938.07
2023-04-15T06:15:59.240Z,938.09
2023-04-15T06:16:59.183Z,938.08
2023-04-15T06:17:59.168Z,938.08
2023-04-15T06:18:59.144Z,938.11
2023-04-15T06:19:59.096Z,938.11
2023-04-15T06:20:59.085Z,938.11
2023-04-15T06:21:59.104Z,938.18
2023-04-15T06:22:59.059Z,938.18
2023-04-15T06:23:59.049Z,938.23
2023-04-15T06:24:59.037Z,938.25
2023-04-15T06:25:59.050Z,938.21
2023-04-15T06:26:59.014Z,938.26
2023-04-15T06:27:59.023Z,938.28
2023-04-15T06:28:59.214Z,938.29
2023-04-15T06:29:59.003Z,938.27
2023-04-15T06:30:58.967Z,938.28
2023-04-15T06:31:58.990Z,938.29
2023-04-15T06:32:58.993Z,938.28
2023-04-15T06:33:58.955Z,938.29
2023-04-15T06:34:58.935Z,938.28
2023-04-15T06:35:58.919Z,938.29
2023-04-15T06:36:58.892Z,938.28
2023-04-15T06:37:58.931Z,938.25
2023-04-15T06:38:58.966Z,938.24
2023-04-15T06:39:58.900Z,938.29
2023-04-15T06:40:58.853Z,938.26
2023-04-15T06:41:58.854Z,938.24
2023-04-15T06:42:58.826Z,938.21
2023-04-15T06:43:58.834Z,938.21
2023-04-15T06:44:58.803Z,938.24
2023-04-15T06:45:58.871Z,938.27
2023-04-15T06:46:58.785Z,938.31
2023-04-15T06:47:59.587Z,938.35
2023-04-15T06:48:58.764Z,938.32
2023-04-15T06:49:58.780Z,938.31
2023-04-15T06:50:58.749Z,938.34
2023-04-15T06:51:58.729Z,938.31
2023-04-15T06:52:58.705Z,938.32
2023-04-15T06:53:58.720Z,938.29
2023-04-15T06:54:58.685Z,938.28
2023-04-15T06:55:58.670Z,938.29
2023-04-15T06:56:58.661Z,938.25
2023-04-15T06:57:58.680Z,938.27
2023-04-15T06:58:58.696Z,938.29
2023-04-15T06:59:58.718Z,938.37
2023-04-15T07:00:58.724Z,938.37
2023-04-15T07:01:58.709Z,938.39
2023-04-15T07:02:58.635Z,938.40
2023-04-15T07:03:58.908Z,938.40
2023-04-15T07:06:58.697Z,938.36
2023-04-15T07:07:58.835Z,938.44
2023-04-15T07:09:00.989Z,938.39
2023-04-15T07:09:58.666Z,938.43
2023-04-15T07:10:58.659Z,938.44
2023-04-15T07:11:58.641Z,938.46
2023-04-15T07:12:58.647Z,938.48
2023-04-15T07:13:58.634Z,938.50
2023-04-15T07:14:58.641Z,938.54
2023-04-15T07:15:58.615Z,938.55
2023-04-15T07:16:58.662Z,938.51
2023-04-15T07:17:58.589Z,938.53
2023-04-15T07:18:58.589Z,938.54
2023-04-15T07:19:58.565Z,938.52
2023-04-15T07:20:58.544Z,938.56
2023-04-15T07:21:58.564Z,938.58
2023-04-15T07:22:58.513Z,938.58
2023-04-15T07:23:58.634Z,938.59
2023-04-15T07:24:58.603Z,938.59
2023-04-15T07:25:58.732Z,938.58
2023-04-15T07:26:59.521Z,938.58
2023-04-15T07:27:58.468Z,938.56
2023-04-15T07:28:58.458Z,938.53
2023-04-15T07:29:58.434Z,938.55
2023-04-15T07:30:58.474Z,938.53
2023-04-15T07:31:58.454Z,938.56
2023-04-15T07:32:58.463Z,938.57
2023-04-15T07:33:58.411Z,938.56
2023-04-15T07:34:58.382Z,938.52
2023-04-15T07:35:58.371Z,938.50
2023-04-15T07:36:58.366Z,938.54
2023-04-15T07:37:58.350Z,938.56
2023-04-15T07:38:58.348Z,938.62
2023-04-15T07:39:58.342Z,938.62
2023-04-15T07:40:58.348Z,938.66
2023-04-15T07:41:58.303Z,938.62
2023-04-15T07:42:58.302Z,938.61
2023-04-15T07:43:58.324Z,938.61
2023-04-15T07:44:58.266Z,938.60
2023-04-15T07:45:58.296Z,938.59
2023-04-15T07:46:58.248Z,938.58
2023-04-15T07:47:58.314Z,938.55
2023-04-15T07:48:58.247Z,938.56
2023-04-15T07:49:58.246Z,938.61
2023-04-15T07:50:58.245Z,938.61
2023-04-15T07:52:05.903Z,938.58
2023-04-15T07:52:58.202Z,938.66
2023-04-15T07:53:58.166Z,938.63
2023-04-15T07:54:58.148Z,938.68
2023-04-15T07:55:58.138Z,938.66
2023-04-15T07:56:59.002Z,938.69
2023-04-15T07:57:58.114Z,938.64
2023-04-15T07:58:58.152Z,938.65
2023-04-15T07:59:58.092Z,938.69
2023-04-15T08:00:58.098Z,938.68
2023-04-15T08:01:58.158Z,938.70
2023-04-15T08:02:58.197Z,938.63
2023-04-15T08:04:07.228Z,938.66
2023-04-15T08:04:58.108Z,938.67
2023-04-15T08:05:58.046Z,938.72
2023-04-15T08:06:58.036Z,938.73
2023-04-15T08:07:58.043Z,938.72
2023-04-15T08:08:58.139Z,938.73
2023-04-15T08:09:58.018Z,938.74
2023-04-15T08:10:57.988Z,938.79
2023-04-15T08:11:57.954Z,938.79
2023-04-15T08:12:58.513Z,938.78
2023-04-15T08:13:57.933Z,938.78
2023-04-15T08:14:57.938Z,938.77
2023-04-15T08:15:57.956Z,938.76
2023-04-15T08:16:57.896Z,938.77
2023-04-15T08:17:57.936Z,938.74
2023-04-15T08:18:58.018Z,938.76
2023-04-15T08:19:57.888Z,938.73
2023-04-15T08:20:57.847Z,938.80
2023-04-15T08:21:57.834Z,938.80
2023-04-15T08:22:57.845Z,938.84
2023-04-15T08:23:57.851Z,938.81
2023-04-15T08:24:57.798Z,938.86
2023-04-15T08:26:07.724Z,938.86
2023-04-15T08:26:57.967Z,938.89
2023-04-15T08:27:57.949Z,938.88
2023-04-15T08:28:57.857Z,938.92
2023-04-15T08:29:57.787Z,938.90
2023-04-15T08:30:57.752Z,938.87
2023-04-15T08:31:57.792Z,938.88
2023-04-15T08:32:57.769Z,938.88
2023-04-15T08:33:57.761Z,938.86
2023-04-15T08:34:57.727Z,938.87
2023-04-15T08:35:57.708Z,938.92
2023-04-15T08:36:57.721Z,938.88
2023-04-15T08:37:57.711Z,938.91
2023-04-15T08:38:57.701Z,938.92
2023-04-15T08:39:57.653Z,938.89
2023-04-15T08:40:57.630Z,938.92
2023-04-15T08:42:00.288Z,938.89
2023-04-15T08:42:57.630Z,938.88
2023-04-15T08:43:57.604Z,938.93
2023-04-15T08:44:57.594Z,938.96
2023-04-15T08:45:57.636Z,938.92
2023-04-15T08:46:57.624Z,938.95
2023-04-15T08:47:57.570Z,938.96
2023-04-15T08:48:57.592Z,939.01
2023-04-15T08:49:57.550Z,939.02
2023-04-15T08:50:57.552Z,939.03
2023-04-15T08:51:57.679Z,939.00
2023-04-15T08:52:57.501Z,939.04
2023-04-15T08:53:57.564Z,939.04
2023-04-15T08:54:57.505Z,939.07
2023-04-15T08:55:57.461Z,939.07
2023-04-15T08:56:57.538Z,939.04
2023-04-15T08:57:57.472Z,939.05
2023-04-15T08:58:57.441Z,939.08
2023-04-15T08:59:57.459Z,939.05
2023-04-15T09:00:57.429Z,939.06
2023-04-15T09:01:57.414Z,939.02
2023-04-15T09:02:57.460Z,939.03
2023-04-15T09:03:57.602Z,939.03
2023-04-15T09:04:57.391Z,939.07
2023-04-15T09:05:57.420Z,939.04
2023-04-15T09:06:57.358Z,939.03
2023-04-15T09:08:05.084Z,939.06
2023-04-15T09:08:57.314Z,939.05
2023-04-15T09:09:57.312Z,939.10
2023-04-15T09:10:57.325Z,939.06
2023-04-15T09:11:57.261Z,939.06
2023-04-15T09:12:57.259Z,939.03
2023-04-15T09:13:57.279Z,939.02
2023-04-15T09:14:57.252Z,939.09
2023-04-15T09:15:57.223Z,939.06
2023-04-15T09:16:57.231Z,939.04
2023-04-15T09:17:57.260Z,939.04
2023-04-15T09:18:57.265Z,939.03
2023-04-15T09:19:57.174Z,939.04
2023-04-15T09:20:57.174Z,939.02
2023-04-15T09:21:58.929Z,939.06
2023-04-15T09:22:57.167Z,939.09
2023-04-15T09:23:57.184Z,939.09
2023-04-15T09:24:57.148Z,939.10
2023-04-15T09:25:57.100Z,939.11
2023-04-15T09:26:57.090Z,939.15
2023-04-15T09:27:57.083Z,939.16
2023-04-15T09:28:57.109Z,939.24
2023-04-15T09:29:57.091Z,939.20
2023-04-15T09:30:57.096Z,939.28
2023-04-15T09:31:57.081Z,939.24
2023-04-15T09:33:04.814Z,939.29
2023-04-15T09:34:06.242Z,939.36
2023-04-15T09:34:57.016Z,939.35
2023-04-15T09:35:57.080Z,939.37
2023-04-15T09:37:04.656Z,939.34
2023-04-15T09:38:04.674Z,939.41
2023-04-15T09:39:05.838Z,939.40
2023-04-15T09:39:56.965Z,939.40
2023-04-15T09:41:04.614Z,939.48
2023-04-15T09:42:05.858Z,939.47
2023-04-15T09:43:04.606Z,939.45
2023-04-15T09:43:56.987Z,939.51
2023-04-15T09:45:04.564Z,939.47
2023-04-15T09:46:05.093Z,939.43
2023-04-15T09:46:57.026Z,939.41
2023-04-15T09:48:04.674Z,939.42
2023-04-15T09:48:56.863Z,939.41
2023-04-15T09:49:56.917Z,939.42
2023-04-15T09:50:56.838Z,939.52
2023-04-15T09:52:05.013Z,939.50
2023-04-15T09:52:57.793Z,939.52
2023-04-15T09:53:56.787Z,939.49
2023-04-15T09:54:56.793Z,939.49
2023-04-15T09:55:56.778Z,939.49
2023-04-15T09:56:56.783Z,939.47
2023-04-15T09:57:56.736Z,939.53
2023-04-15T09:58:56.778Z,939.51
2023-04-15T09:59:56.733Z,939.53
2023-04-15T10:00:56.893Z,939.55
2023-04-15T10:01:56.778Z,939.59
2023-04-15T10:02:56.863Z,939.55
2023-04-15T10:03:56.791Z,939.52
2023-04-15T10:04:56.693Z,939.51
2023-04-15T10:05:56.687Z,939.49
2023-04-15T10:06:56.722Z,939.52
2023-04-15T10:07:56.691Z,939.51
2023-04-15T10:08:56.628Z,939.46
2023-04-15T10:09:56.622Z,939.48
2023-04-15T10:10:56.664Z,939.51
2023-04-15T10:11:56.668Z,939.50
2023-04-15T10:12:56.623Z,939.53
2023-04-15T10:13:56.575Z,939.55
2023-04-15T10:14:59.832Z,939.54
2023-04-15T10:15:56.713Z,939.53
2023-04-15T10:16:56.548Z,939.55
2023-04-15T10:17:56.555Z,939.58
2023-04-15T10:18:56.501Z,939.54
2023-04-15T10:19:56.506Z,939.58
2023-04-15T10:20:56.474Z,939.65
2023-04-15T10:21:56.482Z,939.61
2023-04-15T10:22:56.491Z,939.62
2023-04-15T10:23:56.441Z,939.69
2023-04-15T10:24:56.433Z,939.64
2023-04-15T10:25:56.421Z,939.67
2023-04-15T10:26:56.460Z,939.64
2023-04-15T10:27:56.438Z,939.64
2023-04-15T10:28:56.936Z,939.65
2023-04-15T10:29:56.388Z,939.65
2023-04-15T10:30:56.400Z,939.74
2023-04-15T10:31:56.359Z,939.72
2023-04-15T10:32:56.434Z,939.73
2023-04-15T10:33:56.373Z,939.79
2023-04-15T10:34:56.336Z,939.75
2023-04-15T10:35:56.330Z,939.83
2023-04-15T10:36:56.298Z,939.83
2023-04-15T10:37:56.289Z,939.80
2023-04-15T10:38:56.366Z,939.83
2023-04-15T10:39:56.286Z,939.84
2023-04-15T10:40:56.340Z,939.81
2023-04-15T10:41:56.357Z,939.89
2023-04-15T10:42:56.250Z,939.86
2023-04-15T10:43:56.231Z,939.87
2023-04-15T10:44:56.218Z,939.87
2023-04-15T10:45:56.254Z,939.89
2023-04-15T10:46:56.338Z,939.87
2023-04-15T10:47:56.288Z,939.86
2023-04-15T10:48:56.236Z,939.85
2023-04-15T10:49:56.203Z,939.91
2023-04-15T10:50:56.172Z,939.88
2023-04-15T10:51:56.280Z,939.87
2023-04-15T10:52:56.311Z,939.82
2023-04-15T10:53:56.312Z,939.84
2023-04-15T10:54:56.098Z,939.82
2023-04-15T10:55:56.091Z,939.80
2023-04-15T10:56:56.076Z,939.84
2023-04-15T10:57:56.068Z,939.84
2023-04-15T10:58:56.095Z,939.81
2023-04-15T10:59:56.036Z,939.80
2023-04-15T11:00:56.020Z,939.82
2023-04-15T11:01:56.110Z,939.81
2023-04-15T11:02:56.120Z,939.84
2023-04-15T11:04:03.865Z,939.89
2023-04-15T11:04:56.286Z,939.86
2023-04-15T11:05:55.981Z,939.92
2023-04-15T11:06:56.020Z,939.92
2023-04-15T11:07:55.990Z,939.94
2023-04-15T11:08:55.976Z,939.89
2023-04-15T11:09:56.022Z,939.89
2023-04-15T11:10:55.957Z,939.90
2023-04-15T11:11:55.927Z,939.95
2023-04-15T11:12:55.877Z,939.90
2023-04-15T11:13:55.907Z,939.95
2023-04-15T11:14:55.873Z,939.96
2023-04-15T11:15:55.928Z,939.98
2023-04-15T11:16:55.848Z,940.02
2023-04-15T11:17:55.843Z,940.08
2023-04-15T11:18:55.862Z,940.08
2023-04-15T11:19:55.821Z,940.05
2023-04-15T11:20:55.799Z,940.03
2023-04-15T11:21:55.782Z,940.05
2023-04-15T11:23:13.855Z,940.02
2023-04-15T11:23:56.753Z,940.08
2023-04-15T11:24:56.318Z,940.02
2023-04-15T11:25:55.723Z,940.06
2023-04-15T11:26:55.738Z,940.10
2023-04-15T11:27:55.759Z,940.12
2023-04-15T11:28:55.692Z,940.13
2023-04-15T11:29:55.672Z,940.10
2023-04-15T11:30:55.690Z,940.13
2023-04-15T11:31:55.743Z,940.11
2023-04-15T11:32:55.675Z,940.13
2023-04-15T11:33:55.677Z,940.16
2023-04-15T11:34:55.623Z,940.18
2023-04-15T11:35:55.639Z,940.14
2023-04-15T11:36:55.597Z,940.21
2023-04-15T11:37:55.627Z,940.17
2023-04-15T11:38:55.598Z,940.15
2023-04-15T11:39:55.581Z,940.17
2023-04-15T11:40:55.563Z,940.19
2023-04-15T11:41:55.568Z,940.21
2023-04-15T11:42:55.534Z,940.26
2023-04-15T11:43:55.579Z,940.26
2023-04-15T11:44:55.513Z,940.30
2023-04-15T11:45:55.606Z,940.28
2023-04-15T11:46:55.538Z,940.31
2023-04-15T11:48:04.527Z,940.30
2023-04-15T11:48:55.463Z,940.34
2023-04-15T11:49:55.467Z,940.36
2023-04-15T11:50:55.481Z,940.32
2023-04-15T11:51:55.464Z,940.35
2023-04-15T11:52:55.436Z,940.37
2023-04-15T11:53:55.419Z,940.40
2023-04-15T11:54:55.395Z,940.36
2023-04-15T11:55:55.382Z,940.35
2023-04-15T11:56:55.406Z,940.37
2023-04-15T11:57:55.389Z,940.31
2023-04-15T11:58:55.352Z,940.34
2023-04-15T11:59:55.362Z,940.36
2023-04-15T12:00:55.326Z,940.37
2023-04-15T12:01:55.375Z,940.35
2023-04-15T12:02:55.460Z,940.41
2023-04-15T12:03:55.394Z,940.41
2023-04-15T12:04:55.373Z,940.45
2023-04-15T12:05:55.271Z,940.46
2023-04-15T12:06:55.256Z,940.49
2023-04-15T12:07:55.249Z,940.53
2023-04-15T12:08:55.255Z,940.50
2023-04-15T12:09:55.255Z,940.52
2023-04-15T12:10:55.213Z,940.52
2023-04-15T12:11:55.198Z,940.56
2023-04-15T12:12:55.196Z,940.53
2023-04-15T12:13:55.181Z,940.53
2023-04-15T12:14:55.175Z,940.55
2023-04-15T12:15:55.209Z,940.55
2023-04-15T12:16:55.188Z,940.57
2023-04-15T12:17:55.187Z,940.55
2023-04-15T12:18:55.141Z,940.60
2023-04-15T12:19:55.134Z,940.57
2023-04-15T12:20:55.124Z,940.58
2023-04-15T12:21:55.107Z,940.56
2023-04-15T12:22:55.072Z,940.59
2023-04-15T12:23:55.063Z,940.62
2023-04-15T12:24:55.070Z,940.58
2023-04-15T12:25:55.068Z,940.65
2023-04-15T12:26:55.082Z,940.65
2023-04-15T12:27:55.029Z,940.70
2023-04-15T12:28:55.111Z,940.68
2023-04-15T12:29:55.050Z,940.72